sensor_id;sensor_type;location;lat;lon;timestamp;P1;durP1;ratioP1;P2;durP2;ratioP2
9222;SDS011;7557;51.698;3.942;2023-06-19T00:00:20;4.50;;;4.25;;
9222;SDS011;7557;51.698;3.942;2023-06-19T00:02:47;4.88;;;4.57;;
9222;SDS011;7557;51.698;3.942;2023-06-19T00:05:15;5.40;;;4.53;;
9222;SDS011;7557;51.698;3.942;2023-06-19T00:07:42;8.95;;;4.65;;
9222;SDS011;7557;51.698;3.942;2023-06-19T00:10:09;5.22;;;4.85;;
9222;SDS011;7557;51.698;3.942;2023-06-19T00:12:36;5.85;;;5.45;;
9222;SDS011;7557;51.698;3.942;2023-06-19T00:15:06;6.07;;;5.68;;
9222;SDS011;7557;51.698;3.942;2023-06-19T00:17:34;6.38;;;5.80;;
9222;SDS011;7557;51.698;3.942;2023-06-19T00:20:02;5.85;;;5.43;;
9222;SDS011;7557;51.698;3.942;2023-06-19T00:22:30;5.75;;;5.25;;
9222;SDS011;7557;51.698;3.942;2023-06-19T00:24:57;6.47;;;5.97;;
9222;SDS011;7557;51.698;3.942;2023-06-19T00:27:25;6.40;;;5.97;;
9222;SDS011;7557;51.698;3.942;2023-06-19T00:29:52;7.28;;;6.68;;
9222;SDS011;7557;51.698;3.942;2023-06-19T00:32:21;6.80;;;6.30;;
9222;SDS011;7557;51.698;3.942;2023-06-19T00:34:48;7.28;;;6.70;;
9222;SDS011;7557;51.698;3.942;2023-06-19T00:37:15;7.35;;;6.75;;
9222;SDS011;7557;51.698;3.942;2023-06-19T00:39:43;7.05;;;6.55;;
9222;SDS011;7557;51.698;3.942;2023-06-19T00:42:10;7.70;;;7.18;;
9222;SDS011;7557;51.698;3.942;2023-06-19T00:44:37;9.32;;;8.63;;
9222;SDS011;7557;51.698;3.942;2023-06-19T00:50:11;9.90;;;9.05;;
9222;SDS011;7557;51.698;3.942;2023-06-19T00:52:38;10.13;;;9.30;;
9222;SDS011;7557;51.698;3.942;2023-06-19T00:55:06;9.50;;;8.88;;
9222;SDS011;7557;51.698;3.942;2023-06-19T00:57:34;10.43;;;9.45;;
9222;SDS011;7557;51.698;3.942;2023-06-19T01:00:01;10.18;;;9.48;;
9222;SDS011;7557;51.698;3.942;2023-06-19T01:02:31;11.23;;;10.35;;
9222;SDS011;7557;51.698;3.942;2023-06-19T01:05:00;10.55;;;9.75;;
9222;SDS011;7557;51.698;3.942;2023-06-19T01:07:29;11.00;;;10.10;;
9222;SDS011;7557;51.698;3.942;2023-06-19T01:10:06;11.10;;;10.23;;
9222;SDS011;7557;51.698;3.942;2023-06-19T01:12:37;12.90;;;11.57;;
9222;SDS011;7557;51.698;3.942;2023-06-19T01:15:08;13.18;;;12.07;;
9222;SDS011;7557;51.698;3.942;2023-06-19T01:17:36;17.13;;;15.38;;
9222;SDS011;7557;51.698;3.942;2023-06-19T01:20:06;30.25;;;25.10;;
9222;SDS011;7557;51.698;3.942;2023-06-19T01:22:37;34.65;;;28.02;;
9222;SDS011;7557;51.698;3.942;2023-06-19T01:25:05;33.58;;;28.00;;
9222;SDS011;7557;51.698;3.942;2023-06-19T01:27:33;43.00;;;33.67;;
9222;SDS011;7557;51.698;3.942;2023-06-19T01:30:01;57.15;;;38.33;;
9222;SDS011;7557;51.698;3.942;2023-06-19T01:32:31;51.38;;;37.95;;
9222;SDS011;7557;51.698;3.942;2023-06-19T01:35:02;50.28;;;36.97;;
9222;SDS011;7557;51.698;3.942;2023-06-19T01:37:31;62.45;;;39.58;;
9222;SDS011;7557;51.698;3.942;2023-06-19T01:40:02;54.22;;;38.28;;
9222;SDS011;7557;51.698;3.942;2023-06-19T01:42:34;53.45;;;36.17;;
9222;SDS011;7557;51.698;3.942;2023-06-19T01:45:04;44.53;;;31.85;;
9222;SDS011;7557;51.698;3.942;2023-06-19T01:47:32;46.83;;;33.55;;
9222;SDS011;7557;51.698;3.942;2023-06-19T01:50:00;43.47;;;31.40;;
9222;SDS011;7557;51.698;3.942;2023-06-19T01:52:27;34.00;;;28.80;;
9222;SDS011;7557;51.698;3.942;2023-06-19T01:54:55;36.85;;;28.73;;
9222;SDS011;7557;51.698;3.942;2023-06-19T01:57:24;36.08;;;28.27;;
9222;SDS011;7557;51.698;3.942;2023-06-19T01:59:52;36.28;;;27.83;;
9222;SDS011;7557;51.698;3.942;2023-06-19T02:02:19;35.40;;;28.13;;
9222;SDS011;7557;51.698;3.942;2023-06-19T02:04:46;34.90;;;27.73;;
9222;SDS011;7557;51.698;3.942;2023-06-19T02:07:13;32.50;;;26.70;;
9222;SDS011;7557;51.698;3.942;2023-06-19T02:09:40;32.13;;;25.83;;
9222;SDS011;7557;51.698;3.942;2023-06-19T02:12:08;29.42;;;25.58;;
9222;SDS011;7557;51.698;3.942;2023-06-19T02:14:37;30.13;;;25.13;;
9222;SDS011;7557;51.698;3.942;2023-06-19T02:17:04;28.52;;;23.58;;
9222;SDS011;7557;51.698;3.942;2023-06-19T02:19:31;28.40;;;22.83;;
9222;SDS011;7557;51.698;3.942;2023-06-19T02:21:58;27.67;;;23.10;;
9222;SDS011;7557;51.698;3.942;2023-06-19T02:24:25;26.67;;;21.10;;
9222;SDS011;7557;51.698;3.942;2023-06-19T02:26:52;23.83;;;19.30;;
9222;SDS011;7557;51.698;3.942;2023-06-19T02:29:20;18.55;;;16.08;;
9222;SDS011;7557;51.698;3.942;2023-06-19T02:31:48;18.10;;;16.20;;
9222;SDS011;7557;51.698;3.942;2023-06-19T02:34:16;18.85;;;16.13;;
9222;SDS011;7557;51.698;3.942;2023-06-19T02:36:43;18.40;;;16.45;;
9222;SDS011;7557;51.698;3.942;2023-06-19T02:39:12;18.10;;;14.02;;
9222;SDS011;7557;51.698;3.942;2023-06-19T02:41:39;16.17;;;13.50;;
9222;SDS011;7557;51.698;3.942;2023-06-19T02:44:08;15.95;;;13.25;;
9222;SDS011;7557;51.698;3.942;2023-06-19T02:46:35;15.02;;;11.70;;
9222;SDS011;7557;51.698;3.942;2023-06-19T02:49:04;12.27;;;9.88;;
9222;SDS011;7557;51.698;3.942;2023-06-19T02:51:31;9.30;;;8.40;;
9222;SDS011;7557;51.698;3.942;2023-06-19T02:53:58;9.70;;;8.57;;
9222;SDS011;7557;51.698;3.942;2023-06-19T02:56:25;10.65;;;9.38;;
9222;SDS011;7557;51.698;3.942;2023-06-19T02:58:53;12.35;;;11.05;;
9222;SDS011;7557;51.698;3.942;2023-06-19T03:01:21;15.77;;;13.90;;
9222;SDS011;7557;51.698;3.942;2023-06-19T03:03:48;19.02;;;16.60;;
9222;SDS011;7557;51.698;3.942;2023-06-19T03:06:18;17.25;;;15.43;;
9222;SDS011;7557;51.698;3.942;2023-06-19T03:08:46;19.55;;;16.85;;
9222;SDS011;7557;51.698;3.942;2023-06-19T03:11:13;21.27;;;18.50;;
9222;SDS011;7557;51.698;3.942;2023-06-19T03:13:44;23.63;;;19.80;;
9222;SDS011;7557;51.698;3.942;2023-06-19T03:16:13;20.67;;;18.60;;
9222;SDS011;7557;51.698;3.942;2023-06-19T03:18:40;21.85;;;19.08;;
9222;SDS011;7557;51.698;3.942;2023-06-19T03:21:09;20.55;;;18.40;;
9222;SDS011;7557;51.698;3.942;2023-06-19T03:23:38;20.05;;;17.42;;
9222;SDS011;7557;51.698;3.942;2023-06-19T03:26:07;18.52;;;16.58;;
9222;SDS011;7557;51.698;3.942;2023-06-19T03:28:35;20.25;;;16.48;;
9222;SDS011;7557;51.698;3.942;2023-06-19T03:31:02;18.20;;;16.13;;
9222;SDS011;7557;51.698;3.942;2023-06-19T03:33:29;20.02;;;16.23;;
9222;SDS011;7557;51.698;3.942;2023-06-19T03:35:58;21.55;;;18.33;;
9222;SDS011;7557;51.698;3.942;2023-06-19T03:38:26;24.02;;;19.63;;
9222;SDS011;7557;51.698;3.942;2023-06-19T03:40:55;22.58;;;19.35;;
9222;SDS011;7557;51.698;3.942;2023-06-19T03:43:22;25.35;;;20.17;;
9222;SDS011;7557;51.698;3.942;2023-06-19T03:45:49;19.73;;;17.65;;
9222;SDS011;7557;51.698;3.942;2023-06-19T03:48:17;23.88;;;18.60;;
9222;SDS011;7557;51.698;3.942;2023-06-19T03:50:45;21.33;;;18.10;;
9222;SDS011;7557;51.698;3.942;2023-06-19T03:53:12;27.35;;;20.63;;
9222;SDS011;7557;51.698;3.942;2023-06-19T03:55:39;21.98;;;19.65;;
9222;SDS011;7557;51.698;3.942;2023-06-19T03:58:08;23.65;;;19.88;;
9222;SDS011;7557;51.698;3.942;2023-06-19T04:00:36;21.02;;;18.83;;
9222;SDS011;7557;51.698;3.942;2023-06-19T04:03:03;30.77;;;20.33;;
9222;SDS011;7557;51.698;3.942;2023-06-19T04:05:31;24.30;;;19.90;;
9222;SDS011;7557;51.698;3.942;2023-06-19T04:07:58;25.30;;;20.98;;
9222;SDS011;7557;51.698;3.942;2023-06-19T04:10:25;28.42;;;21.65;;
9222;SDS011;7557;51.698;3.942;2023-06-19T04:12:53;27.67;;;23.05;;
9222;SDS011;7557;51.698;3.942;2023-06-19T04:15:22;23.60;;;20.58;;
9222;SDS011;7557;51.698;3.942;2023-06-19T04:17:49;26.02;;;20.58;;
9222;SDS011;7557;51.698;3.942;2023-06-19T04:20:17;23.95;;;19.35;;
9222;SDS011;7557;51.698;3.942;2023-06-19T04:22:45;25.38;;;19.77;;
9222;SDS011;7557;51.698;3.942;2023-06-19T04:25:14;25.63;;;20.90;;
9222;SDS011;7557;51.698;3.942;2023-06-19T04:27:41;24.30;;;20.95;;
9222;SDS011;7557;51.698;3.942;2023-06-19T04:30:10;22.92;;;19.63;;
9222;SDS011;7557;51.698;3.942;2023-06-19T04:32:39;22.83;;;19.08;;
9222;SDS011;7557;51.698;3.942;2023-06-19T04:35:07;23.83;;;19.98;;
9222;SDS011;7557;51.698;3.942;2023-06-19T04:37:35;21.38;;;19.17;;
9222;SDS011;7557;51.698;3.942;2023-06-19T04:40:03;20.67;;;18.60;;
9222;SDS011;7557;51.698;3.942;2023-06-19T04:42:32;22.10;;;19.08;;
9222;SDS011;7557;51.698;3.942;2023-06-19T04:45:00;20.58;;;18.42;;
9222;SDS011;7557;51.698;3.942;2023-06-19T04:47:27;20.70;;;18.60;;
9222;SDS011;7557;51.698;3.942;2023-06-19T04:49:57;23.33;;;20.83;;
9222;SDS011;7557;51.698;3.942;2023-06-19T04:52:24;20.55;;;18.45;;
9222;SDS011;7557;51.698;3.942;2023-06-19T04:54:52;21.20;;;18.92;;
9222;SDS011;7557;51.698;3.942;2023-06-19T04:57:20;24.65;;;18.70;;
9222;SDS011;7557;51.698;3.942;2023-06-19T04:59:47;20.95;;;18.63;;
9222;SDS011;7557;51.698;3.942;2023-06-19T05:02:15;24.25;;;21.08;;
9222;SDS011;7557;51.698;3.942;2023-06-19T05:04:42;25.65;;;21.92;;
9222;SDS011;7557;51.698;3.942;2023-06-19T05:07:11;24.65;;;21.98;;
9222;SDS011;7557;51.698;3.942;2023-06-19T05:09:40;27.67;;;22.58;;
9222;SDS011;7557;51.698;3.942;2023-06-19T05:12:08;26.52;;;22.98;;
9222;SDS011;7557;51.698;3.942;2023-06-19T05:14:36;27.13;;;24.25;;
9222;SDS011;7557;51.698;3.942;2023-06-19T05:17:03;27.30;;;23.90;;
9222;SDS011;7557;51.698;3.942;2023-06-19T05:19:32;30.25;;;24.88;;
9222;SDS011;7557;51.698;3.942;2023-06-19T05:21:59;30.80;;;24.80;;
9222;SDS011;7557;51.698;3.942;2023-06-19T05:24:28;27.85;;;23.88;;
9222;SDS011;7557;51.698;3.942;2023-06-19T05:26:55;28.08;;;24.40;;
9222;SDS011;7557;51.698;3.942;2023-06-19T05:29:22;33.65;;;25.65;;
9222;SDS011;7557;51.698;3.942;2023-06-19T05:31:50;31.85;;;25.52;;
9222;SDS011;7557;51.698;3.942;2023-06-19T05:34:17;33.17;;;28.20;;
9222;SDS011;7557;51.698;3.942;2023-06-19T05:36:45;31.67;;;25.95;;
9222;SDS011;7557;51.698;3.942;2023-06-19T05:39:12;31.77;;;26.20;;
9222;SDS011;7557;51.698;3.942;2023-06-19T05:41:41;31.15;;;25.40;;
9222;SDS011;7557;51.698;3.942;2023-06-19T05:44:10;32.55;;;26.38;;
9222;SDS011;7557;51.698;3.942;2023-06-19T05:46:40;33.22;;;28.05;;
9222;SDS011;7557;51.698;3.942;2023-06-19T05:49:07;33.10;;;28.05;;
9222;SDS011;7557;51.698;3.942;2023-06-19T05:51:35;34.33;;;27.05;;
9222;SDS011;7557;51.698;3.942;2023-06-19T05:54:02;35.15;;;27.40;;
9222;SDS011;7557;51.698;3.942;2023-06-19T05:56:30;36.90;;;28.55;;
9222;SDS011;7557;51.698;3.942;2023-06-19T05:58:59;34.20;;;28.25;;
9222;SDS011;7557;51.698;3.942;2023-06-19T06:01:28;37.13;;;28.05;;
9222;SDS011;7557;51.698;3.942;2023-06-19T06:03:55;31.75;;;25.92;;
9222;SDS011;7557;51.698;3.942;2023-06-19T06:06:23;39.13;;;28.38;;
9222;SDS011;7557;51.698;3.942;2023-06-19T06:08:52;35.05;;;26.38;;
9222;SDS011;7557;51.698;3.942;2023-06-19T06:11:20;33.30;;;25.50;;
9222;SDS011;7557;51.698;3.942;2023-06-19T06:13:49;32.30;;;25.05;;
9222;SDS011;7557;51.698;3.942;2023-06-19T06:16:18;29.40;;;23.95;;
9222;SDS011;7557;51.698;3.942;2023-06-19T06:18:45;29.55;;;25.77;;
9222;SDS011;7557;51.698;3.942;2023-06-19T06:21:13;28.30;;;22.70;;
9222;SDS011;7557;51.698;3.942;2023-06-19T06:23:40;23.92;;;20.20;;
9222;SDS011;7557;51.698;3.942;2023-06-19T06:26:10;17.67;;;15.13;;
9222;SDS011;7557;51.698;3.942;2023-06-19T06:28:37;18.85;;;15.75;;
9222;SDS011;7557;51.698;3.942;2023-06-19T06:31:05;18.95;;;15.20;;
9222;SDS011;7557;51.698;3.942;2023-06-19T06:33:34;16.17;;;14.52;;
9222;SDS011;7557;51.698;3.942;2023-06-19T06:36:02;14.20;;;11.13;;
9222;SDS011;7557;51.698;3.942;2023-06-19T06:38:29;12.27;;;10.90;;
9222;SDS011;7557;51.698;3.942;2023-06-19T06:40:57;15.52;;;13.07;;
9222;SDS011;7557;51.698;3.942;2023-06-19T06:43:24;15.35;;;12.88;;
9222;SDS011;7557;51.698;3.942;2023-06-19T06:45:52;12.82;;;11.45;;
9222;SDS011;7557;51.698;3.942;2023-06-19T06:48:20;12.55;;;10.98;;
9222;SDS011;7557;51.698;3.942;2023-06-19T06:50:49;13.38;;;11.93;;
9222;SDS011;7557;51.698;3.942;2023-06-19T06:53:17;13.27;;;11.27;;
9222;SDS011;7557;51.698;3.942;2023-06-19T06:55:45;13.80;;;12.20;;
9222;SDS011;7557;51.698;3.942;2023-06-19T06:58:12;12.85;;;10.80;;
9222;SDS011;7557;51.698;3.942;2023-06-19T07:00:39;12.05;;;10.77;;
9222;SDS011;7557;51.698;3.942;2023-06-19T07:03:07;15.10;;;12.57;;
9222;SDS011;7557;51.698;3.942;2023-06-19T07:05:35;16.92;;;12.05;;
9222;SDS011;7557;51.698;3.942;2023-06-19T07:08:03;13.90;;;12.43;;
9222;SDS011;7557;51.698;3.942;2023-06-19T07:10:30;13.95;;;12.60;;
9222;SDS011;7557;51.698;3.942;2023-06-19T07:12:58;11.90;;;10.80;;
9222;SDS011;7557;51.698;3.942;2023-06-19T07:15:25;13.75;;;12.27;;
9222;SDS011;7557;51.698;3.942;2023-06-19T07:17:52;15.43;;;13.40;;
9222;SDS011;7557;51.698;3.942;2023-06-19T07:20:20;15.93;;;12.35;;
9222;SDS011;7557;51.698;3.942;2023-06-19T07:22:47;15.57;;;12.32;;
9222;SDS011;7557;51.698;3.942;2023-06-19T07:25:19;12.32;;;11.02;;
9222;SDS011;7557;51.698;3.942;2023-06-19T07:27:49;13.77;;;11.13;;
9222;SDS011;7557;51.698;3.942;2023-06-19T07:30:16;16.60;;;11.98;;
9222;SDS011;7557;51.698;3.942;2023-06-19T07:32:44;12.85;;;11.55;;
9222;SDS011;7557;51.698;3.942;2023-06-19T07:35:11;13.32;;;11.98;;
9222;SDS011;7557;51.698;3.942;2023-06-19T07:37:39;11.52;;;10.52;;
9222;SDS011;7557;51.698;3.942;2023-06-19T07:40:06;12.70;;;11.40;;
9222;SDS011;7557;51.698;3.942;2023-06-19T07:42:37;13.02;;;11.68;;
9222;SDS011;7557;51.698;3.942;2023-06-19T07:45:05;15.15;;;11.70;;
9222;SDS011;7557;51.698;3.942;2023-06-19T07:47:32;13.15;;;11.13;;
9222;SDS011;7557;51.698;3.942;2023-06-19T07:50:00;12.98;;;11.55;;
9222;SDS011;7557;51.698;3.942;2023-06-19T07:52:27;13.60;;;11.88;;
9222;SDS011;7557;51.698;3.942;2023-06-19T07:54:55;12.13;;;11.02;;
9222;SDS011;7557;51.698;3.942;2023-06-19T07:57:24;11.80;;;10.40;;
9222;SDS011;7557;51.698;3.942;2023-06-19T07:59:54;11.85;;;10.93;;
9222;SDS011;7557;51.698;3.942;2023-06-19T08:02:22;11.80;;;10.18;;
9222;SDS011;7557;51.698;3.942;2023-06-19T08:04:49;11.70;;;10.35;;
9222;SDS011;7557;51.698;3.942;2023-06-19T08:07:16;12.45;;;11.05;;
9222;SDS011;7557;51.698;3.942;2023-06-19T08:09:44;11.98;;;10.85;;
9222;SDS011;7557;51.698;3.942;2023-06-19T08:12:11;14.25;;;11.88;;
9222;SDS011;7557;51.698;3.942;2023-06-19T08:14:38;11.00;;;9.90;;
9222;SDS011;7557;51.698;3.942;2023-06-19T08:17:08;11.50;;;10.27;;
9222;SDS011;7557;51.698;3.942;2023-06-19T08:19:35;11.63;;;10.48;;
9222;SDS011;7557;51.698;3.942;2023-06-19T08:22:04;10.70;;;9.70;;
9222;SDS011;7557;51.698;3.942;2023-06-19T08:24:32;11.93;;;10.25;;
9222;SDS011;7557;51.698;3.942;2023-06-19T08:27:00;11.52;;;10.15;;
9222;SDS011;7557;51.698;3.942;2023-06-19T08:29:28;16.60;;;9.98;;
9222;SDS011;7557;51.698;3.942;2023-06-19T08:31:55;13.13;;;10.93;;
9222;SDS011;7557;51.698;3.942;2023-06-19T08:34:24;12.73;;;11.45;;
9222;SDS011;7557;51.698;3.942;2023-06-19T08:36:51;14.63;;;11.82;;
9222;SDS011;7557;51.698;3.942;2023-06-19T08:39:18;20.63;;;17.20;;
9222;SDS011;7557;51.698;3.942;2023-06-19T08:41:47;21.00;;;17.85;;
9222;SDS011;7557;51.698;3.942;2023-06-19T08:44:14;19.63;;;17.08;;
9222;SDS011;7557;51.698;3.942;2023-06-19T08:46:42;19.77;;;17.67;;
9222;SDS011;7557;51.698;3.942;2023-06-19T08:49:09;16.95;;;15.40;;
9222;SDS011;7557;51.698;3.942;2023-06-19T08:51:39;20.00;;;15.38;;
9222;SDS011;7557;51.698;3.942;2023-06-19T08:54:07;13.65;;;12.25;;
9222;SDS011;7557;51.698;3.942;2023-06-19T08:56:35;9.48;;;8.68;;
9222;SDS011;7557;51.698;3.942;2023-06-19T08:59:09;15.82;;;11.30;;
9222;SDS011;7557;51.698;3.942;2023-06-19T09:01:37;12.20;;;10.85;;
9222;SDS011;7557;51.698;3.942;2023-06-19T09:04:08;14.05;;;12.68;;
9222;SDS011;7557;51.698;3.942;2023-06-19T09:06:46;13.88;;;11.02;;
9222;SDS011;7557;51.698;3.942;2023-06-19T09:09:14;11.25;;;10.23;;
9222;SDS011;7557;51.698;3.942;2023-06-19T09:11:42;14.48;;;10.25;;
9222;SDS011;7557;51.698;3.942;2023-06-19T09:14:10;11.40;;;10.30;;
9222;SDS011;7557;51.698;3.942;2023-06-19T09:16:39;13.63;;;11.38;;
9222;SDS011;7557;51.698;3.942;2023-06-19T09:19:07;13.52;;;12.40;;
9222;SDS011;7557;51.698;3.942;2023-06-19T09:21:36;17.60;;;15.93;;
9222;SDS011;7557;51.698;3.942;2023-06-19T09:24:07;18.50;;;16.40;;
9222;SDS011;7557;51.698;3.942;2023-06-19T09:26:34;19.08;;;17.15;;
9222;SDS011;7557;51.698;3.942;2023-06-19T09:29:11;18.15;;;16.00;;
9222;SDS011;7557;51.698;3.942;2023-06-19T09:31:41;16.70;;;14.70;;
9222;SDS011;7557;51.698;3.942;2023-06-19T09:34:08;17.23;;;15.43;;
9222;SDS011;7557;51.698;3.942;2023-06-19T09:36:36;17.17;;;15.65;;
9222;SDS011;7557;51.698;3.942;2023-06-19T09:39:03;14.35;;;13.07;;
9222;SDS011;7557;51.698;3.942;2023-06-19T09:41:32;14.38;;;12.98;;
9222;SDS011;7557;51.698;3.942;2023-06-19T09:44:03;15.70;;;14.25;;
9222;SDS011;7557;51.698;3.942;2023-06-19T09:46:37;14.57;;;13.27;;
9222;SDS011;7557;51.698;3.942;2023-06-19T09:49:10;13.65;;;11.65;;
9222;SDS011;7557;51.698;3.942;2023-06-19T09:51:41;12.88;;;11.52;;
9222;SDS011;7557;51.698;3.942;2023-06-19T09:54:11;11.98;;;10.82;;
9222;SDS011;7557;51.698;3.942;2023-06-19T09:56:42;13.13;;;11.60;;
9222;SDS011;7557;51.698;3.942;2023-06-19T09:59:09;11.80;;;10.68;;
9222;SDS011;7557;51.698;3.942;2023-06-19T10:01:38;13.13;;;11.38;;
9222;SDS011;7557;51.698;3.942;2023-06-19T10:04:08;11.85;;;10.77;;
9222;SDS011;7557;51.698;3.942;2023-06-19T10:06:46;11.20;;;9.73;;
9222;SDS011;7557;51.698;3.942;2023-06-19T10:09:16;14.32;;;10.77;;
9222;SDS011;7557;51.698;3.942;2023-06-19T10:11:45;11.77;;;10.77;;
9222;SDS011;7557;51.698;3.942;2023-06-19T10:14:13;11.05;;;10.15;;
9222;SDS011;7557;51.698;3.942;2023-06-19T10:16:43;10.57;;;9.65;;
9222;SDS011;7557;51.698;3.942;2023-06-19T10:19:14;12.23;;;11.00;;
9222;SDS011;7557;51.698;3.942;2023-06-19T10:21:46;11.10;;;10.02;;
9222;SDS011;7557;51.698;3.942;2023-06-19T10:24:16;12.40;;;10.32;;
9222;SDS011;7557;51.698;3.942;2023-06-19T10:26:55;11.63;;;10.55;;
9222;SDS011;7557;51.698;3.942;2023-06-19T10:29:24;10.32;;;9.48;;
9222;SDS011;7557;51.698;3.942;2023-06-19T10:31:52;10.65;;;9.65;;
9222;SDS011;7557;51.698;3.942;2023-06-19T10:34:22;11.60;;;10.48;;
9222;SDS011;7557;51.698;3.942;2023-06-19T10:36:59;10.95;;;9.50;;
9222;SDS011;7557;51.698;3.942;2023-06-19T10:39:28;10.15;;;9.15;;
9222;SDS011;7557;51.698;3.942;2023-06-19T10:41:55;10.70;;;9.75;;
9222;SDS011;7557;51.698;3.942;2023-06-19T10:44:23;9.70;;;8.77;;
9222;SDS011;7557;51.698;3.942;2023-06-19T10:46:52;10.48;;;9.32;;
9222;SDS011;7557;51.698;3.942;2023-06-19T10:49:19;8.85;;;7.95;;
9222;SDS011;7557;51.698;3.942;2023-06-19T10:51:48;8.27;;;7.57;;
9222;SDS011;7557;51.698;3.942;2023-06-19T10:54:16;8.88;;;8.00;;
9222;SDS011;7557;51.698;3.942;2023-06-19T10:56:45;8.75;;;8.15;;
9222;SDS011;7557;51.698;3.942;2023-06-19T10:59:14;9.93;;;9.05;;
9222;SDS011;7557;51.698;3.942;2023-06-19T11:01:42;9.27;;;8.55;;
9222;SDS011;7557;51.698;3.942;2023-06-19T11:04:12;9.30;;;8.25;;
9222;SDS011;7557;51.698;3.942;2023-06-19T11:06:41;10.15;;;9.02;;
9222;SDS011;7557;51.698;3.942;2023-06-19T11:09:10;8.93;;;8.10;;
9222;SDS011;7557;51.698;3.942;2023-06-19T11:11:39;8.57;;;7.68;;
9222;SDS011;7557;51.698;3.942;2023-06-19T11:14:09;9.77;;;8.48;;
9222;SDS011;7557;51.698;3.942;2023-06-19T11:16:39;11.10;;;8.90;;
9222;SDS011;7557;51.698;3.942;2023-06-19T11:19:08;7.57;;;6.90;;
9222;SDS011;7557;51.698;3.942;2023-06-19T11:21:36;9.38;;;8.35;;
9222;SDS011;7557;51.698;3.942;2023-06-19T11:24:04;9.05;;;8.15;;
9222;SDS011;7557;51.698;3.942;2023-06-19T11:26:37;9.98;;;9.10;;
9222;SDS011;7557;51.698;3.942;2023-06-19T11:29:17;10.23;;;9.32;;
9222;SDS011;7557;51.698;3.942;2023-06-19T11:31:45;10.27;;;8.48;;
9222;SDS011;7557;51.698;3.942;2023-06-19T11:34:14;9.93;;;8.90;;
9222;SDS011;7557;51.698;3.942;2023-06-19T11:36:42;10.85;;;9.85;;
9222;SDS011;7557;51.698;3.942;2023-06-19T11:39:10;8.85;;;8.07;;
9222;SDS011;7557;51.698;3.942;2023-06-19T11:41:39;9.57;;;8.73;;
9222;SDS011;7557;51.698;3.942;2023-06-19T11:44:07;10.25;;;9.15;;
9222;SDS011;7557;51.698;3.942;2023-06-19T11:46:38;9.38;;;8.52;;
9222;SDS011;7557;51.698;3.942;2023-06-19T11:49:12;13.52;;;8.75;;
9222;SDS011;7557;51.698;3.942;2023-06-19T11:51:42;8.90;;;7.85;;
9222;SDS011;7557;51.698;3.942;2023-06-19T11:54:10;9.68;;;8.30;;
9222;SDS011;7557;51.698;3.942;2023-06-19T11:56:39;8.35;;;7.55;;
9222;SDS011;7557;51.698;3.942;2023-06-19T11:59:07;9.02;;;8.13;;
9222;SDS011;7557;51.698;3.942;2023-06-19T12:01:36;9.32;;;8.38;;
9222;SDS011;7557;51.698;3.942;2023-06-19T12:04:05;8.40;;;7.60;;
9222;SDS011;7557;51.698;3.942;2023-06-19T12:06:32;8.15;;;7.50;;
9222;SDS011;7557;51.698;3.942;2023-06-19T12:09:01;7.88;;;7.15;;
9222;SDS011;7557;51.698;3.942;2023-06-19T12:11:29;9.32;;;6.45;;
9222;SDS011;7557;51.698;3.942;2023-06-19T12:13:57;7.82;;;7.10;;
9222;SDS011;7557;51.698;3.942;2023-06-19T12:16:24;7.30;;;6.70;;
9222;SDS011;7557;51.698;3.942;2023-06-19T12:18:55;8.02;;;7.18;;
9222;SDS011;7557;51.698;3.942;2023-06-19T12:21:22;8.75;;;6.40;;
9222;SDS011;7557;51.698;3.942;2023-06-19T12:23:50;7.28;;;6.60;;
9222;SDS011;7557;51.698;3.942;2023-06-19T12:26:17;7.00;;;6.43;;
9222;SDS011;7557;51.698;3.942;2023-06-19T12:28:45;7.18;;;6.57;;
9222;SDS011;7557;51.698;3.942;2023-06-19T12:31:13;10.40;;;7.35;;
9222;SDS011;7557;51.698;3.942;2023-06-19T12:33:40;6.97;;;6.28;;
9222;SDS011;7557;51.698;3.942;2023-06-19T12:36:11;9.57;;;7.43;;
9222;SDS011;7557;51.698;3.942;2023-06-19T12:38:42;8.35;;;7.03;;
9222;SDS011;7557;51.698;3.942;2023-06-19T12:41:09;8.65;;;7.88;;
9222;SDS011;7557;51.698;3.942;2023-06-19T12:43:38;9.25;;;7.60;;
9222;SDS011;7557;51.698;3.942;2023-06-19T12:46:05;8.10;;;7.50;;
9222;SDS011;7557;51.698;3.942;2023-06-19T12:48:33;8.38;;;7.45;;
9222;SDS011;7557;51.698;3.942;2023-06-19T12:51:00;9.02;;;8.13;;
9222;SDS011;7557;51.698;3.942;2023-06-19T12:53:29;9.25;;;8.45;;
9222;SDS011;7557;51.698;3.942;2023-06-19T12:55:56;10.07;;;9.07;;
9222;SDS011;7557;51.698;3.942;2023-06-19T12:58:24;8.52;;;7.75;;
9222;SDS011;7557;51.698;3.942;2023-06-19T13:00:53;11.00;;;8.38;;
9222;SDS011;7557;51.698;3.942;2023-06-19T13:03:20;9.43;;;8.43;;
9222;SDS011;7557;51.698;3.942;2023-06-19T13:05:48;8.32;;;7.60;;
9222;SDS011;7557;51.698;3.942;2023-06-19T13:08:16;8.55;;;6.72;;
9222;SDS011;7557;51.698;3.942;2023-06-19T13:10:45;8.13;;;7.43;;
9222;SDS011;7557;51.698;3.942;2023-06-19T13:13:12;8.55;;;7.57;;
9222;SDS011;7557;51.698;3.942;2023-06-19T13:15:40;8.23;;;7.47;;
9222;SDS011;7557;51.698;3.942;2023-06-19T13:18:07;9.40;;;8.40;;
9222;SDS011;7557;51.698;3.942;2023-06-19T13:20:35;8.93;;;8.02;;
9222;SDS011;7557;51.698;3.942;2023-06-19T13:23:02;8.82;;;7.97;;
9222;SDS011;7557;51.698;3.942;2023-06-19T13:25:31;9.73;;;8.15;;
9222;SDS011;7557;51.698;3.942;2023-06-19T13:27:59;8.27;;;7.60;;
9222;SDS011;7557;51.698;3.942;2023-06-19T13:30:27;9.27;;;8.32;;
9222;SDS011;7557;51.698;3.942;2023-06-19T13:32:54;11.98;;;8.07;;
9222;SDS011;7557;51.698;3.942;2023-06-19T13:35:22;8.57;;;7.35;;
9222;SDS011;7557;51.698;3.942;2023-06-19T13:37:49;11.35;;;7.82;;
9222;SDS011;7557;51.698;3.942;2023-06-19T13:40:17;8.18;;;6.93;;
9222;SDS011;7557;51.698;3.942;2023-06-19T13:42:44;7.97;;;7.18;;
9222;SDS011;7557;51.698;3.942;2023-06-19T13:45:14;9.00;;;8.15;;
9222;SDS011;7557;51.698;3.942;2023-06-19T13:47:41;7.00;;;6.30;;
9222;SDS011;7557;51.698;3.942;2023-06-19T13:50:09;6.28;;;5.78;;
9222;SDS011;7557;51.698;3.942;2023-06-19T13:52:43;6.70;;;6.10;;
9222;SDS011;7557;51.698;3.942;2023-06-19T13:55:10;9.00;;;7.30;;
9222;SDS011;7557;51.698;3.942;2023-06-19T13:57:39;7.38;;;6.28;;
9222;SDS011;7557;51.698;3.942;2023-06-19T14:00:07;6.70;;;6.10;;
9222;SDS011;7557;51.698;3.942;2023-06-19T14:02:37;7.18;;;6.15;;
9222;SDS011;7557;51.698;3.942;2023-06-19T14:05:06;6.28;;;5.78;;
9222;SDS011;7557;51.698;3.942;2023-06-19T14:07:34;7.50;;;6.55;;
9222;SDS011;7557;51.698;3.942;2023-06-19T14:10:03;7.53;;;6.78;;
9222;SDS011;7557;51.698;3.942;2023-06-19T14:12:31;6.25;;;5.65;;
9222;SDS011;7557;51.698;3.942;2023-06-19T14:14:58;6.43;;;5.82;;
9222;SDS011;7557;51.698;3.942;2023-06-19T14:17:26;5.72;;;5.25;;
9222;SDS011;7557;51.698;3.942;2023-06-19T14:19:55;7.38;;;6.28;;
9222;SDS011;7557;51.698;3.942;2023-06-19T14:22:23;5.85;;;5.30;;
9222;SDS011;7557;51.698;3.942;2023-06-19T14:24:50;6.30;;;5.70;;
9222;SDS011;7557;51.698;3.942;2023-06-19T14:27:24;6.80;;;6.25;;
9222;SDS011;7557;51.698;3.942;2023-06-19T14:29:52;6.65;;;6.00;;
9222;SDS011;7557;51.698;3.942;2023-06-19T14:32:21;6.47;;;5.88;;
9222;SDS011;7557;51.698;3.942;2023-06-19T14:34:49;6.45;;;5.85;;
9222;SDS011;7557;51.698;3.942;2023-06-19T14:37:18;8.25;;;5.80;;
9222;SDS011;7557;51.698;3.942;2023-06-19T14:39:46;9.07;;;6.45;;
9222;SDS011;7557;51.698;3.942;2023-06-19T14:42:13;8.50;;;6.40;;
9222;SDS011;7557;51.698;3.942;2023-06-19T14:44:41;5.97;;;5.40;;
9222;SDS011;7557;51.698;3.942;2023-06-19T14:47:08;7.95;;;6.00;;
9222;SDS011;7557;51.698;3.942;2023-06-19T14:49:36;6.85;;;6.35;;
9222;SDS011;7557;51.698;3.942;2023-06-19T14:52:03;6.70;;;6.20;;
9222;SDS011;7557;51.698;3.942;2023-06-19T14:54:33;8.52;;;6.63;;
9222;SDS011;7557;51.698;3.942;2023-06-19T14:57:00;7.05;;;5.85;;
9222;SDS011;7557;51.698;3.942;2023-06-19T14:59:27;6.43;;;5.55;;
9222;SDS011;7557;51.698;3.942;2023-06-19T15:01:57;7.72;;;5.80;;
9222;SDS011;7557;51.698;3.942;2023-06-19T15:04:24;6.35;;;5.63;;
9222;SDS011;7557;51.698;3.942;2023-06-19T15:06:52;6.35;;;5.78;;